| time (UTC) | temp F | wind direction | speed MPH | gust MPH | rain 1hr in | rain 24hr in | rain mn in | humidity % | barometer mb |
| 20260507121102 | 55 | 85 | 1.0 | 1.0 | 0.00 | 0.16 | 0.16 | 77 | 1012.8 |
| 20260507120558 | 55 | 221 | 3.0 | 5.0 | 0.00 | 0.16 | 0.16 | 80 | 1012.7 |
| 20260507120055 | 55 | 136 | 0.0 | 0.0 | 0.00 | 0.16 | 0.16 | 85 | 1012.9 |
| 20260507115551 | 55 | 80 | 0.0 | 1.0 | 0.00 | 0.16 | 0.16 | 88 | 1012.4 |
| 20260507115048 | 55 | 114 | 0.0 | 0.0 | 0.00 | 0.16 | 0.16 | 88 | 1012.7 |
| 20260507114543 | 55 | 89 | 0.0 | 0.0 | 0.00 | 0.16 | 0.16 | 88 | 1012.5 |
| 20260507114041 | 55 | 74 | 0.0 | 0.0 | 0.00 | 0.16 | 0.16 | 89 | 1012.3 |
| 20260507113538 | 55 | 107 | 2.0 | 2.0 | 0.00 | 0.16 | 0.16 | 88 | 1012.2 |
| 20260507113035 | 55 | 97 | 1.0 | 1.0 | 0.00 | 0.16 | 0.16 | 89 | 1012.2 |
| 20260507112533 | 55 | 88 | 0.0 | 0.0 | 0.00 | 0.16 | 0.16 | 89 | 1012.2 |
| 20260507112029 | 55 | 85 | 0.0 | 0.0 | 0.00 | 0.16 | 0.16 | 89 | 1012.5 |
| 20260507111527 | 55 | 88 | 0.0 | 0.0 | 0.00 | 0.16 | 0.16 | 90 | 1012.4 |
| 20260507111023 | 55 | 92 | 0.0 | 0.0 | 0.00 | 0.16 | 0.16 | 90 | 1012.2 |
| 20260507110520 | 55 | 89 | 0.0 | 0.0 | 0.00 | 0.16 | 0.16 | 90 | 1012.0 |
| 20260507110016 | 55 | 86 | 2.0 | 2.0 | 0.00 | 0.16 | 0.16 | 90 | 1012.0 |
| 20260507105513 | 55 | 76 | 0.0 | 0.0 | 0.00 | 0.16 | 0.16 | 90 | 1012.3 |
| 20260507105009 | 55 | 354 | 0.0 | 1.0 | 0.00 | 0.16 | 0.16 | 91 | 1012.0 |
| 20260507104507 | 55 | 82 | 0.0 | 0.0 | 0.00 | 0.16 | 0.16 | 90 | 1012.0 |
| 20260507104003 | 55 | 73 | 0.0 | 0.0 | 0.00 | 0.16 | 0.16 | 90 | 1012.1 |
| 20260507103459 | 54 | 87 | 0.0 | 0.0 | 0.00 | 0.16 | 0.16 | 90 | 1011.9 |
| 20260507102955 | 54 | 88 | 0.0 | 0.0 | 0.00 | 0.16 | 0.16 | 91 | 1012.0 |
| 20260507102452 | 54 | 84 | 0.0 | 0.0 | 0.00 | 0.16 | 0.16 | 91 | 1011.9 |
| 20260507101948 | 54 | 102 | 0.0 | 0.0 | 0.00 | 0.16 | 0.16 | 91 | 1011.7 |
| 20260507101443 | 54 | 80 | 0.0 | 0.0 | 0.00 | 0.16 | 0.16 | 92 | 1011.7 |
| 20260507100940 | 54 | 74 | 0.0 | 0.0 | 0.00 | 0.16 | 0.16 | 92 | 1011.6 |
| 20260507100438 | 54 | 75 | 0.0 | 0.0 | 0.00 | 0.16 | 0.16 | 92 | 1011.5 |
| 20260507095936 | 54 | 76 | 0.0 | 0.0 | 0.00 | 0.16 | 0.16 | 92 | 1011.6 |
| 20260507095433 | 54 | 11 | 0.0 | 0.0 | 0.00 | 0.16 | 0.16 | 92 | 1011.6 |
| 20260507094930 | 54 | 78 | 0.0 | 0.0 | 0.07 | 0.16 | 0.16 | 92 | 1011.6 |
| 20260507094426 | 54 | 97 | 0.0 | 0.0 | 0.07 | 0.16 | 0.16 | 92 | 1011.7 |
| 20260507093923 | 54 | 78 | 0.0 | 0.0 | 0.00 | 0.15 | 0.15 | 92 | 1011.7 |
| 20260507093421 | 54 | 81 | 0.0 | 0.0 | 0.00 | 0.15 | 0.15 | 93 | 1011.6 |
| 20260507092920 | 54 | 83 | 0.0 | 0.0 | 0.00 | 0.15 | 0.15 | 93 | 1011.7 |
| 20260507092415 | 54 | 82 | 0.0 | 0.0 | 0.00 | 0.15 | 0.15 | 93 | 1011.5 |
| 20260507091912 | 54 | 77 | 0.0 | 0.0 | 0.00 | 0.15 | 0.15 | 93 | 1011.3 |
| 20260507091408 | 54 | 91 | 0.0 | 0.0 | 0.00 | 0.15 | 0.15 | 93 | 1011.4 |
| 20260507090904 | 54 | 85 | 0.0 | 0.0 | 0.00 | 0.15 | 0.15 | 93 | 1011.5 |
| 20260507090401 | 55 | 80 | 0.0 | 0.0 | 0.00 | 0.15 | 0.15 | 93 | 1011.5 |
| 20260507085858 | 55 | 85 | 0.0 | 0.0 | 0.00 | 0.15 | 0.15 | 94 | 1011.5 |
| 20260507085354 | 54 | 81 | 0.0 | 0.0 | 0.00 | 0.15 | 0.15 | 94 | 1011.5 |
| 20260507084852 | 54 | 81 | 0.0 | 0.0 | 0.00 | 0.15 | 0.15 | 94 | 1011.3 |
| 20260507084348 | 54 | 79 | 0.0 | 0.0 | 0.00 | 0.15 | 0.15 | 94 | 1011.5 |
| 20260507083846 | 54 | 82 | 0.0 | 0.0 | 0.00 | 0.15 | 0.15 | 93 | 1011.1 |
| 20260507083342 | 54 | 88 | 0.0 | 0.0 | 0.00 | 0.15 | 0.15 | 93 | 1011.7 |
| 20260507082838 | 54 | 82 | 0.0 | 0.0 | 0.00 | 0.15 | 0.15 | 93 | 1011.5 |
| 20260507082334 | 54 | 82 | 0.0 | 0.0 | 0.00 | 0.15 | 0.15 | 93 | 1011.4 |
| 20260507081831 | 54 | 87 | 0.0 | 0.0 | 0.00 | 0.15 | 0.15 | 93 | 1011.4 |
| 20260507081327 | 55 | 72 | 0.0 | 0.0 | 0.00 | 0.15 | 0.15 | 92 | 1011.3 |
| 20260507080824 | 0 | 0.0 | 0.0 | 0.00 | 0.00 | 0.00 | 1011.1 | ||
| 20260507080320 | 0 | 0.0 | 0.0 | 0.00 | 0.00 | 0.00 | 1010.7 | ||
| 20260507075815 | 55 | 87 | 0.0 | 0.0 | 0.00 | 0.15 | 0.15 | 91 | 1010.7 |
| 20260507075312 | 55 | 87 | 0.0 | 0.0 | 0.00 | 0.15 | 0.15 | 91 | 1010.9 |
| 20260507074809 | 55 | 56 | 0.0 | 0.0 | 0.00 | 0.15 | 0.15 | 91 | 1010.9 |
| 20260507074306 | 55 | 168 | 2.0 | 2.0 | 0.00 | 0.15 | 0.15 | 90 | 1011.0 |
| 20260507073803 | 55 | 60 | 2.0 | 2.0 | 0.00 | 0.15 | 0.15 | 90 | 1010.6 |
| 20260507073300 | 55 | 95 | 0.0 | 0.0 | 0.00 | 0.15 | 0.15 | 90 | 1010.6 |
| 20260507072757 | 55 | 15 | 3.0 | 3.0 | 0.00 | 0.15 | 0.15 | 91 | 1010.3 |
| 20260507072254 | 55 | 87 | 0.0 | 1.0 | 0.00 | 0.15 | 0.15 | 91 | 1010.6 |
| 20260507071752 | 55 | 74 | 0.0 | 1.0 | 0.00 | 0.15 | 0.15 | 92 | 1010.7 |
| 20260507071248 | 55 | 186 | 0.0 | 1.0 | 0.00 | 0.15 | 0.15 | 92 | 1010.5 |
| 20260507070745 | 55 | 343 | 3.0 | 5.0 | 0.00 | 0.15 | 0.15 | 92 | 1010.3 |
| 20260507070242 | 55 | 164 | 0.0 | 0.0 | 0.00 | 0.15 | 0.15 | 93 | 1010.4 |
| 20260507065738 | 55 | 76 | 0.0 | 0.0 | 0.00 | 0.15 | 0.15 | 93 | 1010.6 |
| 20260507065235 | 55 | 80 | 0.0 | 0.0 | 0.00 | 0.15 | 0.15 | 93 | 1010.7 |
| 20260507064733 | 55 | 77 | 0.0 | 0.0 | 0.00 | 0.15 | 0.15 | 93 | 1010.3 |
| 20260507064232 | 55 | 72 | 0.0 | 1.0 | 0.00 | 0.15 | 0.15 | 93 | 1010.6 |
| 20260507063728 | 55 | 83 | 0.0 | 0.0 | 0.00 | 0.15 | 0.15 | 93 | 1010.4 |
| 20260507063225 | 55 | 83 | 1.0 | 2.0 | 0.00 | 0.15 | 0.15 | 93 | 1010.3 |
| 20260507062722 | 55 | 90 | 0.0 | 1.0 | 0.00 | 0.15 | 0.15 | 93 | 1010.4 |
| 20260507062220 | 55 | 30 | 2.0 | 2.0 | 0.00 | 0.15 | 0.15 | 93 | 1010.7 |
| 20260507061717 | 55 | 72 | 2.0 | 3.0 | 0.00 | 0.15 | 0.15 | 93 | 1010.2 |
| 20260507061215 | 56 | 41 | 1.0 | 1.0 | 0.00 | 0.15 | 0.15 | 93 | 1010.3 |
| 20260507060713 | 56 | 80 | 1.0 | 1.0 | 0.00 | 0.15 | 0.15 | 93 | 1010.4 |
| 20260507060209 | 56 | 73 | 1.0 | 1.0 | 0.00 | 0.15 | 0.15 | 93 | 1010.4 |
| 20260507055705 | 56 | 38 | 0.0 | 0.0 | 0.05 | 0.15 | 0.15 | 93 | 1009.9 |
| 20260507055201 | 56 | 53 | 0.0 | 0.0 | 0.05 | 0.15 | 0.15 | 93 | 1010.2 |
| 20260507054657 | 56 | 91 | 0.0 | 0.0 | 0.00 | 0.14 | 0.14 | 93 | 1010.3 |
| 20260507054154 | 56 | 84 | 0.0 | 0.0 | 0.07 | 0.14 | 0.14 | 93 | 1010.2 |
| 20260507053652 | 57 | 75 | 1.0 | 1.0 | 0.07 | 0.14 | 0.14 | 93 | 1010.7 |
| 20260507053150 | 57 | 82 | 0.0 | 0.0 | 0.05 | 0.13 | 0.13 | 93 | 1010.7 |
| 20260507052648 | 57 | 79 | 0.0 | 0.0 | 0.05 | 0.13 | 0.13 | 93 | 1010.3 |
| 20260507052144 | 57 | 102 | 0.0 | 0.0 | 0.00 | 0.12 | 0.12 | 93 | 1010.6 |
| 20260507051642 | 57 | 84 | 0.0 | 0.0 | 0.00 | 0.12 | 0.12 | 93 | 1010.0 |
| 20260507051138 | 57 | 125 | 0.0 | 0.0 | 0.07 | 0.12 | 0.12 | 93 | 1010.4 |
| 20260507050636 | 58 | 75 | 0.0 | 1.0 | 0.07 | 0.12 | 0.12 | 93 | 1010.7 |
| 20260507050132 | 58 | 89 | 0.0 | 0.0 | 0.00 | 0.11 | 0.11 | 93 | 1010.9 |
| 20260507045629 | 58 | 77 | 0.0 | 0.0 | 0.00 | 0.11 | 0.11 | 93 | 1010.4 |
| 20260507045126 | 58 | 88 | 0.0 | 0.0 | 0.00 | 0.11 | 0.11 | 93 | 1010.7 |
| 20260507044623 | 58 | 96 | 0.0 | 0.0 | 0.05 | 0.11 | 0.11 | 92 | 1010.5 |
| 20260507044120 | 58 | 82 | 0.0 | 0.0 | 0.17 | 0.11 | 0.11 | 92 | 1011.0 |
| 20260507043615 | 58 | 186 | 1.0 | 1.0 | 0.31 | 0.10 | 0.10 | 91 | 1010.4 |
| 20260507043113 | 59 | 98 | 2.0 | 2.0 | 0.31 | 0.08 | 0.08 | 89 | 1010.5 |
| 20260507042609 | 60 | 97 | 0.0 | 0.0 | 0.31 | 0.05 | 0.05 | 86 | 1011.0 |
| 20260507042104 | 60 | 95 | 0.0 | 0.0 | 0.19 | 0.03 | 0.03 | 84 | 1010.7 |
| 20260507041601 | 61 | 82 | 0.0 | 0.0 | 0.12 | 0.02 | 0.02 | 81 | 1010.4 |
| 20260507041058 | 61 | 101 | 1.0 | 1.0 | 0.00 | 0.00 | 0.00 | 78 | 1010.8 |
| 20260507040555 | 61 | 62 | 1.0 | 1.0 | 0.00 | 0.00 | 0.00 | 77 | 1010.3 |
| 20260507040051 | 61 | 62 | 1.0 | 1.0 | 0.00 | 0.00 | 0.00 | 78 | 1010.6 |
| 20260507035547 | 62 | 124 | 0.0 | 1.0 | 0.00 | 0.27 | 0.27 | 77 | 1010.3 |
| 20260507035043 | 62 | 338 | 0.0 | 1.0 | 0.00 | 0.27 | 0.27 | 78 | 1010.4 |
| 20260507034540 | 63 | 129 | 0.0 | 0.0 | 0.00 | 0.27 | 0.27 | 77 | 1010.1 |
| 20260507034038 | 63 | 294 | 2.0 | 2.0 | 0.00 | 0.27 | 0.27 | 76 | 1010.4 |
| 20260507033536 | 64 | 90 | 1.0 | 2.0 | 0.00 | 0.27 | 0.27 | 74 | 1010.3 |
| 20260507033033 | 64 | 359 | 1.0 | 1.0 | 0.00 | 0.27 | 0.27 | 74 | 1010.2 |
| 20260507032530 | 64 | 118 | 2.0 | 3.0 | 0.00 | 0.27 | 0.27 | 76 | 1010.2 |
| 20260507032026 | 64 | 53 | 1.0 | 1.0 | 0.00 | 0.27 | 0.27 | 78 | 1010.0 |
| 20260507031522 | 64 | 175 | 0.0 | 0.0 | 0.00 | 0.27 | 0.27 | 78 | 1009.9 |
| 20260507031020 | 64 | 33 | 1.0 | 1.0 | 0.00 | 0.27 | 0.27 | 78 | 1010.0 |
| 20260507030516 | 65 | 50 | 1.0 | 1.0 | 0.00 | 0.27 | 0.27 | 79 | 1009.4 |
| 20260507030015 | 65 | 80 | 0.0 | 0.0 | 0.00 | 0.27 | 0.27 | 79 | 1009.5 |
| 20260507025511 | 65 | 42 | 2.0 | 2.0 | 0.00 | 0.27 | 0.27 | 79 | 1009.7 |
| 20260507025008 | 65 | 50 | 3.0 | 3.0 | 0.00 | 0.27 | 0.27 | 79 | 1009.7 |
| 20260507024506 | 66 | 77 | 2.0 | 2.0 | 0.00 | 0.27 | 0.27 | 80 | 1009.7 |
| 20260507024002 | 66 | 117 | 1.0 | 1.0 | 0.00 | 0.27 | 0.27 | 81 | 1009.5 |
| 20260507023458 | 66 | 79 | 1.0 | 1.0 | 0.00 | 0.27 | 0.27 | 81 | 1009.5 |
| 20260507022956 | 66 | 333 | 3.0 | 3.0 | 0.00 | 0.27 | 0.27 | 82 | 1009.3 |
| 20260507022453 | 67 | 60 | 0.0 | 0.0 | 0.00 | 0.27 | 0.27 | 83 | 1009.4 |
| 20260507021948 | 67 | 320 | 5.0 | 7.0 | 0.00 | 0.27 | 0.27 | 83 | 1009.0 |
| 20260507021444 | 67 | 82 | 0.0 | 1.0 | 0.00 | 0.27 | 0.27 | 84 | 1008.9 |
| 20260507020941 | 67 | 56 | 0.0 | 0.0 | 0.00 | 0.27 | 0.27 | 84 | 1009.0 |
| 20260507020438 | 68 | 88 | 0.0 | 1.0 | 0.00 | 0.27 | 0.27 | 84 | 1009.0 |
| 20260507015935 | 68 | 115 | 0.0 | 1.0 | 0.00 | 0.27 | 0.27 | 83 | 1009.2 |
| 20260507015433 | 68 | 85 | 0.0 | 0.0 | 0.00 | 0.27 | 0.27 | 84 | 1008.8 |
| 20260507014930 | 68 | 105 | 0.0 | 0.0 | 0.00 | 0.27 | 0.27 | 84 | 1008.8 |
| 20260507014427 | 67 | 103 | 0.0 | 0.0 | 0.00 | 0.27 | 0.27 | 84 | 1009.2 |
| 20260507013923 | 67 | 98 | 0.0 | 1.0 | 0.00 | 0.27 | 0.27 | 85 | 1009.1 |
| 20260507013420 | 67 | 88 | 0.0 | 0.0 | 0.00 | 0.27 | 0.27 | 85 | 1009.0 |
| 20260507012918 | 67 | 88 | 0.0 | 0.0 | 0.00 | 0.27 | 0.27 | 85 | 1009.0 |
| 20260507012414 | 67 | 89 | 0.0 | 0.0 | 0.00 | 0.27 | 0.27 | 85 | 1009.2 |
| 20260507011910 | 67 | 90 | 0.0 | 0.0 | 0.00 | 0.27 | 0.27 | 85 | 1009.3 |
| 20260507011407 | 67 | 90 | 0.0 | 0.0 | 0.00 | 0.27 | 0.27 | 85 | 1009.3 |
| 20260507010902 | 67 | 90 | 0.0 | 0.0 | 0.00 | 0.27 | 0.27 | 85 | 1009.4 |
| 20260507010357 | 67 | 90 | 0.0 | 0.0 | 0.00 | 0.27 | 0.27 | 85 | 1009.4 |
| 20260507005855 | 67 | 89 | 0.0 | 0.0 | 0.00 | 0.27 | 0.27 | 85 | 1009.4 |
| 20260507005351 | 67 | 89 | 0.0 | 0.0 | 0.00 | 0.27 | 0.27 | 85 | 1009.4 |
| 20260507004848 | 67 | 89 | 0.0 | 0.0 | 0.00 | 0.27 | 0.27 | 85 | 1009.1 |
| 20260507004345 | 67 | 90 | 0.0 | 0.0 | 0.00 | 0.27 | 0.27 | 84 | 1009.1 |
| 20260507003842 | 67 | 89 | 0.0 | 0.0 | 0.00 | 0.27 | 0.27 | 84 | 1009.0 |
| 20260507003338 | 67 | 98 | 0.0 | 0.0 | 0.00 | 0.27 | 0.27 | 84 | 1009.3 |
| 20260507002833 | 67 | 95 | 0.0 | 0.0 | 0.00 | 0.27 | 0.27 | 84 | 1009.2 |
| 20260507002329 | 67 | 94 | 0.0 | 0.0 | 0.00 | 0.27 | 0.27 | 83 | 1009.1 |
| 20260507001827 | 68 | 92 | 0.0 | 0.0 | 0.00 | 0.27 | 0.27 | 83 | 1009.1 |
| 20260507001323 | 68 | 87 | 0.0 | 0.0 | 0.00 | 0.27 | 0.27 | 82 | 1008.8 |
| 20260507000820 | 68 | 89 | 0.0 | 0.0 | 0.00 | 0.27 | 0.27 | 81 | 1008.8 |
| 20260507000315 | 68 | 87 | 0.0 | 0.0 | 0.00 | 0.27 | 0.27 | 81 | 1008.8 |
| 20260506235812 | 69 | 90 | 0.0 | 0.0 | 0.00 | 0.27 | 0.27 | 80 | 1008.8 |
| 20260506235308 | 69 | 93 | 0.0 | 0.0 | 0.00 | 0.27 | 0.27 | 80 | 1008.5 |
| 20260506234805 | 69 | 84 | 0.0 | 0.0 | 0.00 | 0.27 | 0.27 | 80 | 1008.6 |
| 20260506234303 | 69 | 118 | 0.0 | 0.0 | 0.00 | 0.27 | 0.27 | 79 | 1008.5 |
| 20260506233800 | 69 | 107 | 1.0 | 1.0 | 0.00 | 0.27 | 0.27 | 79 | 1008.5 |
| 20260506233256 | 69 | 103 | 0.0 | 0.0 | 0.00 | 0.27 | 0.27 | 79 | 1008.2 |
| 20260506232753 | 69 | 110 | 0.0 | 0.0 | 0.00 | 0.27 | 0.27 | 79 | 1008.4 |
| 20260506232248 | 69 | 145 | 0.0 | 1.0 | 0.00 | 0.27 | 0.27 | 79 | 1008.2 |
| 20260506231745 | 69 | 99 | 0.0 | 0.0 | 0.00 | 0.27 | 0.27 | 79 | 1008.3 |
| 20260506231244 | 69 | 264 | 2.0 | 2.0 | 0.00 | 0.27 | 0.27 | 79 | 1008.4 |
| 20260506230740 | 69 | 106 | 0.0 | 1.0 | 0.00 | 0.27 | 0.27 | 79 | 1008.1 |
| 20260506230237 | 69 | 105 | 0.0 | 0.0 | 0.00 | 0.27 | 0.27 | 79 | 1008.2 |
| 20260506225733 | 69 | 160 | 1.0 | 1.0 | 0.00 | 0.27 | 0.27 | 78 | 1008.2 |
| 20260506225231 | 69 | 224 | 2.0 | 3.0 | 0.00 | 0.27 | 0.27 | 78 | 1008.2 |
| 20260506224727 | 69 | 115 | 0.0 | 0.0 | 0.00 | 0.27 | 0.27 | 78 | 1008.2 |
| 20260506224225 | 69 | 273 | 3.0 | 5.0 | 0.00 | 0.27 | 0.27 | 77 | 1008.0 |
| 20260506223721 | 69 | 89 | 1.0 | 2.0 | 0.00 | 0.27 | 0.27 | 77 | 1008.0 |
| 20260506223216 | 70 | 100 | 1.0 | 2.0 | 0.00 | 0.27 | 0.27 | 77 | 1008.0 |
| 20260506222713 | 70 | 255 | 5.0 | 7.0 | 0.00 | 0.27 | 0.27 | 76 | 1008.2 |
| 20260506222208 | 70 | 243 | 1.0 | 2.0 | 0.00 | 0.27 | 0.27 | 77 | 1008.1 |
| 20260506221707 | 70 | 130 | 1.0 | 2.0 | 0.00 | 0.27 | 0.27 | 77 | 1008.2 |
| 20260506221205 | 70 | 104 | 1.0 | 2.0 | 0.00 | 0.27 | 0.27 | 77 | 1008.1 |
| 20260506220701 | 70 | 104 | 0.0 | 0.0 | 0.00 | 0.27 | 0.27 | 77 | 1008.0 |
| 20260506220156 | 70 | 114 | 1.0 | 1.0 | 0.00 | 0.27 | 0.27 | 78 | 1008.2 |
| 20260506215653 | 69 | 131 | 3.0 | 3.0 | 0.00 | 0.27 | 0.27 | 77 | 1008.0 |
| 20260506215148 | 69 | 97 | 0.0 | 0.0 | 0.00 | 0.27 | 0.27 | 78 | 1008.1 |
| 20260506214646 | 69 | 20 | 0.0 | 0.0 | 0.00 | 0.27 | 0.27 | 77 | 1008.2 |
| 20260506214143 | 69 | 110 | 4.0 | 6.0 | 0.00 | 0.27 | 0.27 | 77 | 1007.9 |
| 20260506213641 | 70 | 113 | 2.0 | 3.0 | 0.00 | 0.27 | 0.27 | 76 | 1008.1 |
| 20260506213138 | 70 | 163 | 3.0 | 3.0 | 0.00 | 0.27 | 0.27 | 76 | 1008.2 |
| 20260506212636 | 69 | 318 | 2.0 | 3.0 | 0.00 | 0.27 | 0.27 | 77 | 1008.1 |
| 20260506212130 | 69 | 263 | 2.0 | 2.0 | 0.00 | 0.27 | 0.27 | 78 | 1008.2 |
| 20260506211626 | 70 | 275 | 3.0 | 6.0 | 0.00 | 0.27 | 0.27 | 77 | 1008.3 |
| 20260506211123 | 70 | 136 | 3.0 | 5.0 | 0.00 | 0.27 | 0.27 | 76 | 1008.1 |
| 20260506210620 | 70 | 181 | 4.0 | 6.0 | 0.00 | 0.27 | 0.27 | 76 | 1008.0 |
| 20260506210116 | 70 | 247 | 6.0 | 8.0 | 0.00 | 0.27 | 0.27 | 75 | 1007.9 |
| 20260506205613 | 69 | 240 | 2.0 | 3.0 | 0.00 | 0.27 | 0.27 | 77 | 1007.8 |
| 20260506205108 | 70 | 177 | 2.0 | 2.0 | 0.00 | 0.27 | 0.27 | 76 | 1007.7 |
| 20260506204607 | 70 | 239 | 1.0 | 2.0 | 0.00 | 0.27 | 0.27 | 76 | 1007.7 |
| 20260506204103 | 70 | 113 | 0.0 | 1.0 | 0.00 | 0.27 | 0.27 | 77 | 1007.6 |
| 20260506203602 | 70 | 243 | 4.0 | 5.0 | 0.00 | 0.27 | 0.27 | 76 | 1007.8 |
| 20260506203058 | 70 | 107 | 1.0 | 1.0 | 0.00 | 0.27 | 0.27 | 77 | 1007.9 |
| 20260506202556 | 70 | 190 | 3.0 | 3.0 | 0.00 | 0.27 | 0.27 | 76 | 1008.2 |
| 20260506202052 | 69 | 125 | 1.0 | 1.0 | 0.00 | 0.27 | 0.27 | 77 | 1007.9 |
| 20260506201549 | 69 | 157 | 2.0 | 2.0 | 0.00 | 0.27 | 0.27 | 77 | 1007.8 |
| 20260506201046 | 69 | 212 | 4.0 | 5.0 | 0.00 | 0.27 | 0.27 | 77 | 1007.9 |
| 20260506200542 | 69 | 116 | 2.0 | 2.0 | 0.00 | 0.27 | 0.27 | 78 | 1008.2 |
| 20260506200039 | 68 | 254 | 3.0 | 6.0 | 0.00 | 0.27 | 0.27 | 78 | 1008.1 |
| 20260506195535 | 68 | 217 | 4.0 | 8.0 | 0.00 | 0.27 | 0.27 | 78 | 1008.0 |
| 20260506195032 | 69 | 278 | 3.0 | 3.0 | 0.00 | 0.27 | 0.27 | 77 | 1008.0 |
| 20260506194530 | 69 | 240 | 3.0 | 6.0 | 0.00 | 0.27 | 0.27 | 77 | 1008.1 |
| 20260506194026 | 69 | 258 | 2.0 | 3.0 | 0.00 | 0.27 | 0.27 | 78 | 1008.0 |
| 20260506193523 | 69 | 74 | 2.0 | 2.0 | 0.00 | 0.27 | 0.27 | 78 | 1007.9 |
| 20260506193020 | 68 | 222 | 5.0 | 7.0 | 0.00 | 0.27 | 0.27 | 78 | 1008.1 |
| 20260506192517 | 68 | 257 | 5.0 | 6.0 | 0.00 | 0.27 | 0.27 | 78 | 1008.0 |
| 20260506192013 | 68 | 268 | 2.0 | 2.0 | 0.00 | 0.27 | 0.27 | 79 | 1008.4 |
| 20260506191510 | 68 | 104 | 1.0 | 1.0 | 0.00 | 0.27 | 0.27 | 79 | 1008.1 |
| 20260506191006 | 68 | 102 | 6.0 | 8.0 | 0.00 | 0.27 | 0.27 | 79 | 1008.5 |
| 20260506190503 | 68 | 153 | 2.0 | 2.0 | 0.00 | 0.27 | 0.27 | 79 | 1008.7 |
| 20260506190000 | 68 | 119 | 0.0 | 0.0 | 0.00 | 0.27 | 0.27 | 80 | 1008.6 |
| 20260506185458 | 68 | 111 | 1.0 | 1.0 | 0.00 | 0.27 | 0.27 | 80 | 1008.6 |
| 20260506184954 | 67 | 118 | 1.0 | 1.0 | 0.00 | 0.27 | 0.27 | 80 | 1008.8 |
| 20260506184451 | 67 | 171 | 1.0 | 2.0 | 0.00 | 0.27 | 0.27 | 80 | 1009.0 |
| 20260506183948 | 68 | 125 | 2.0 | 5.0 | 0.00 | 0.27 | 0.27 | 79 | 1008.9 |
| 20260506183444 | 67 | 267 | 3.0 | 6.0 | 0.00 | 0.27 | 0.27 | 79 | 1008.7 |
| 20260506182941 | 67 | 262 | 2.0 | 5.0 | 0.00 | 0.27 | 0.27 | 80 | 1008.7 |
| 20260506182438 | 67 | 256 | 8.0 | 11.0 | 0.00 | 0.27 | 0.27 | 79 | 1008.7 |
| 20260506181935 | 67 | 213 | 1.0 | 2.0 | 0.00 | 0.27 | 0.27 | 80 | 1009.2 |
| 20260506181433 | 67 | 89 | 1.0 | 2.0 | 0.00 | 0.27 | 0.27 | 80 | 1008.9 |
| 20260506180930 | 66 | 194 | 2.0 | 2.0 | 0.00 | 0.27 | 0.27 | 81 | 1008.9 |
| 20260506180426 | 67 | 268 | 5.0 | 8.0 | 0.00 | 0.27 | 0.27 | 80 | 1009.1 |
| 20260506175923 | 67 | 76 | 3.0 | 3.0 | 0.00 | 0.27 | 0.27 | 80 | 1009.1 |
| 20260506175420 | 67 | 282 | 4.0 | 6.0 | 0.00 | 0.27 | 0.27 | 80 | 1009.1 |
| 20260506174917 | 66 | 132 | 0.0 | 1.0 | 0.00 | 0.27 | 0.27 | 82 | 1009.0 |
| 20260506174414 | 66 | 201 | 4.0 | 5.0 | 0.00 | 0.27 | 0.27 | 81 | 1009.1 |
| 20260506173911 | 66 | 120 | 0.0 | 0.0 | 0.00 | 0.27 | 0.27 | 83 | 1009.2 |
| 20260506173408 | 65 | 227 | 2.0 | 3.0 | 0.00 | 0.27 | 0.27 | 83 | 1009.3 |
| 20260506172905 | 65 | 183 | 5.0 | 5.0 | 0.00 | 0.27 | 0.27 | 84 | 1009.0 |
| 20260506172402 | 65 | 191 | 4.0 | 5.0 | 0.00 | 0.27 | 0.27 | 84 | 1009.1 |
| 20260506171859 | 65 | 93 | 2.0 | 5.0 | 0.00 | 0.27 | 0.27 | 85 | 1009.2 |
| 20260506171356 | 65 | 134 | 2.0 | 2.0 | 0.00 | 0.27 | 0.27 | 86 | 1009.1 |
| 20260506170854 | 64 | 173 | 2.0 | 3.0 | 0.00 | 0.27 | 0.27 | 86 | 1009.4 |
| 20260506170349 | 64 | 350 | 3.0 | 3.0 | 0.00 | 0.27 | 0.27 | 86 | 1009.6 |
| 20260506165843 | 64 | 239 | 3.0 | 3.0 | 0.00 | 0.27 | 0.27 | 88 | 1009.4 |
| 20260506165341 | 63 | 114 | 1.0 | 1.0 | 0.00 | 0.27 | 0.27 | 89 | 1009.6 |
| 20260506164837 | 64 | 194 | 4.0 | 6.0 | 0.00 | 0.27 | 0.27 | 90 | 1009.6 |
| 20260506164334 | 63 | 250 | 1.0 | 2.0 | 0.00 | 0.27 | 0.27 | 93 | 1009.4 |
| 20260506163832 | 62 | 204 | 4.0 | 6.0 | 0.00 | 0.27 | 0.27 | 93 | 1009.8 |
| 20260506163326 | 63 | 243 | 5.0 | 7.0 | 0.00 | 0.27 | 0.27 | 94 | 1009.6 |
| 20260506162821 | 62 | 201 | 2.0 | 3.0 | 0.00 | 0.27 | 0.27 | 96 | 1009.4 |
| 20260506162319 | 62 | 199 | 4.0 | 7.0 | 0.00 | 0.27 | 0.27 | 96 | 1009.4 |
| 20260506161811 | 62 | 123 | 2.0 | 3.0 | 0.00 | 0.27 | 0.27 | 96 | 1009.5 |
| 20260506161308 | 62 | 112 | 3.0 | 3.0 | 0.00 | 0.27 | 0.27 | 96 | 1009.8 |
| 20260506160805 | 62 | 239 | 1.0 | 6.0 | 0.00 | 0.27 | 0.27 | 97 | 1009.5 |
| 20260506160301 | 61 | 176 | 4.0 | 9.0 | 0.00 | 0.27 | 0.27 | 97 | 1009.6 |
| 20260506155800 | 62 | 135 | 1.0 | 1.0 | 0.00 | 0.27 | 0.27 | 97 | 1009.7 |
| 20260506155256 | 62 | 224 | 3.0 | 3.0 | 0.00 | 0.27 | 0.27 | 97 | 1010.1 |
| 20260506153404 | 61 | 118 | 1.0 | 1.0 | 0.00 | 0.27 | 0.27 | 97 | 1010.1 |
| 20260506152901 | 61 | 229 | 4.0 | 6.0 | 0.00 | 0.27 | 0.27 | 97 | 1010.1 |
| 20260506152358 | 61 | 166 | 2.0 | 3.0 | 0.05 | 0.27 | 0.27 | 97 | 1010.0 |
| 20260506151857 | 61 | 97 | 2.0 | 3.0 | 0.05 | 0.27 | 0.27 | 97 | 1010.1 |
| 20260506151353 | 61 | 150 | 3.0 | 6.0 | 0.07 | 0.26 | 0.26 | 96 | 1010.2 |
| 20260506150851 | 60 | 109 | 1.0 | 1.0 | 0.12 | 0.26 | 0.26 | 97 | 1010.1 |
| 20260506150347 | 60 | 222 | 3.0 | 5.0 | 0.12 | 0.25 | 0.25 | 97 | 1010.4 |
| 20260506145844 | 60 | 100 | 0.0 | 0.0 | 0.12 | 0.24 | 0.24 | 96 | 1010.2 |
| 20260506145340 | 60 | 188 | 0.0 | 0.0 | 0.12 | 0.23 | 0.23 | 96 | 1010.3 |
| 20260506144838 | 61 | 169 | 1.0 | 1.0 | 0.12 | 0.22 | 0.22 | 96 | 1010.3 |
| 20260506144334 | 60 | 169 | 2.0 | 3.0 | 0.19 | 0.22 | 0.22 | 96 | 1010.6 |
| 20260506143833 | 60 | 231 | 1.0 | 2.0 | 0.07 | 0.20 | 0.20 | 96 | 1010.7 |
| 20260506143329 | 61 | 190 | 1.0 | 2.0 | 0.00 | 0.19 | 0.19 | 96 | 1010.6 |
| 20260506142828 | 61 | 104 | 1.0 | 1.0 | 0.00 | 0.19 | 0.19 | 96 | 1010.5 |
| 20260506142325 | 61 | 107 | 0.0 | 1.0 | 0.07 | 0.19 | 0.19 | 96 | 1010.3 |
| 20260506141823 | 61 | 115 | 3.0 | 3.0 | 0.07 | 0.19 | 0.19 | 95 | 1010.7 |
| 20260506141321 | 61 | 96 | 0.0 | 0.0 | 0.05 | 0.18 | 0.18 | 95 | 1010.6 |
| 20260506140819 | 60 | 103 | 0.0 | 1.0 | 0.24 | 0.18 | 0.18 | 95 | 1010.4 |
| 20260506140316 | 60 | 243 | 3.0 | 6.0 | 0.24 | 0.17 | 0.17 | 95 | 1010.2 |
| 20260506135813 | 60 | 106 | 1.0 | 2.0 | 0.19 | 0.15 | 0.15 | 94 | 1010.4 |
| 20260506135309 | 60 | 89 | 0.0 | 1.0 | 0.19 | 0.13 | 0.13 | 94 | 1010.7 |
| 20260506134806 | 60 | 179 | 2.0 | 2.0 | 0.17 | 0.12 | 0.12 | 93 | 1010.6 |
| 20260506134302 | 60 | 123 | 1.0 | 1.0 | 0.12 | 0.10 | 0.10 | 93 | 1010.7 |
| 20260506133759 | 61 | 102 | 1.0 | 2.0 | 0.12 | 0.09 | 0.09 | 93 | 1010.6 |
| 20260506133256 | 61 | 99 | 0.0 | 0.0 | 0.12 | 0.08 | 0.08 | 92 | 1010.8 |
| 20260506132753 | 61 | 89 | 0.0 | 0.0 | 0.14 | 0.07 | 0.07 | 91 | 1010.9 |
| 20260506132250 | 61 | 210 | 3.0 | 5.0 | 0.19 | 0.06 | 0.06 | 90 | 1010.9 |
| 20260506131748 | 61 | 120 | 1.0 | 2.0 | 0.12 | 0.05 | 0.05 | 89 | 1010.9 |
| 20260506131243 | 62 | 99 | 0.0 | 1.0 | 0.00 | 0.03 | 0.03 | 88 | 1010.6 |
| 20260506130740 | 62 | 330 | 4.0 | 7.0 | 0.05 | 0.03 | 0.03 | 86 | 1010.9 |
| 20260506130237 | 62 | 230 | 1.0 | 1.0 | 0.05 | 0.03 | 0.03 | 87 | 1010.6 |
| 20260506125736 | 62 | 205 | 1.0 | 1.0 | 0.00 | 0.02 | 0.02 | 88 | 1010.5 |
| 20260506125233 | 62 | 103 | 2.0 | 2.0 | 0.00 | 0.02 | 0.02 | 87 | 1010.4 |
| 20260506124731 | 62 | 163 | 1.0 | 2.0 | 0.00 | 0.02 | 0.02 | 87 | 1010.1 |
| 20260506124229 | 62 | 117 | 1.0 | 1.0 | 0.00 | 0.02 | 0.02 | 87 | 1010.2 |
| 20260506123726 | 62 | 244 | 2.0 | 3.0 | 0.00 | 0.02 | 0.02 | 87 | 1009.9 |
| 20260506123225 | 62 | 124 | 0.0 | 0.0 | 0.00 | 0.02 | 0.02 | 88 | 1010.1 |
| 20260506122721 | 62 | 122 | 1.0 | 1.0 | 0.00 | 0.02 | 0.02 | 88 | 1010.1 |
| 20260506122218 | 62 | 130 | 0.0 | 0.0 | 0.07 | 0.02 | 0.02 | 87 | 1010.2 |
| 20260506121716 | 62 | 222 | 2.0 | 3.0 | 0.07 | 0.02 | 0.02 | 86 | 1010.4 |
| 20260506121212 | 63 | 156 | 1.0 | 1.0 | 0.05 | 0.01 | 0.01 | 85 | 1010.2 |